createdAt,value
2018-07-26T00:01:16.024Z,101670.27
2018-07-26T00:03:43.519Z,101668.84
2018-07-26T00:06:11.547Z,101671.49
2018-07-26T00:08:39.121Z,101674.48
2018-07-26T00:11:06.679Z,101666.59
2018-07-26T00:13:34.676Z,101668.61
2018-07-26T00:16:02.251Z,101667.53
2018-07-26T00:18:29.806Z,101669.17
2018-07-26T00:20:57.916Z,101662.66
2018-07-26T00:23:25.518Z,101665.27
2018-07-26T00:25:53.095Z,101661.86
2018-07-26T00:28:21.148Z,101660.64
2018-07-26T00:30:48.638Z,101656.85
2018-07-26T00:33:16.247Z,101663.05
2018-07-26T00:35:44.051Z,101658.77
2018-07-26T00:38:11.566Z,101655.81
2018-07-26T00:40:39.115Z,101658.80
2018-07-26T00:43:07.195Z,101658.07
2018-07-26T00:45:34.825Z,101654.80
2018-07-26T00:48:02.406Z,101663.67
2018-07-26T00:50:30.502Z,101669.23
2018-07-26T00:52:58.104Z,101674.45
2018-07-26T00:55:25.685Z,101652.48
2018-07-26T00:57:54.051Z,101667.07
2018-07-26T01:00:21.620Z,101669.44
2018-07-26T01:02:49.244Z,101673.64
2018-07-26T01:05:17.302Z,101676.84
2018-07-26T01:07:44.843Z,101682.06
2018-07-26T01:10:12.438Z,101679.97
2018-07-26T01:12:40.573Z,101683.17
2018-07-26T01:15:08.144Z,101685.19
2018-07-26T01:17:35.754Z,101678.40
2018-07-26T01:20:04.116Z,101682.61
2018-07-26T01:22:31.723Z,101687.16
2018-07-26T01:24:59.290Z,101696.31
2018-07-26T01:27:27.357Z,101690.77
2018-07-26T01:29:55.061Z,101692.75
2018-07-26T01:32:22.596Z,101697.83
2018-07-26T01:34:50.417Z,101701.02
2018-07-26T01:37:18.049Z,101707.32
2018-07-26T01:39:45.628Z,101696.12
2018-07-26T01:42:13.451Z,101684.53
2018-07-26T01:44:40.978Z,101685.16
2018-07-26T01:47:08.493Z,101693.81
2018-07-26T01:49:36.442Z,101702.08
2018-07-26T01:52:04.002Z,101701.70
2018-07-26T01:54:31.545Z,101704.06
2018-07-26T01:56:59.321Z,101706.56
2018-07-26T01:59:27.193Z,101702.76
2018-07-26T02:01:54.805Z,101709.16
2018-07-26T02:04:22.661Z,101716.45
2018-07-26T02:06:50.199Z,101726.08
2018-07-26T02:09:17.824Z,101740.13
2018-07-26T02:11:45.798Z,101745.83
2018-07-26T02:14:19.015Z,101748.31
2018-07-26T02:16:46.988Z,101745.22
2018-07-26T02:19:14.533Z,101749.80
2018-07-26T02:21:42.127Z,101759.78
2018-07-26T02:24:10.019Z,101766.17
2018-07-26T02:26:37.653Z,101773.95
2018-07-26T02:29:05.235Z,101766.31
2018-07-26T02:31:33.229Z,101758.69
2018-07-26T02:34:00.884Z,101746.97
2018-07-26T02:36:28.460Z,101747.72
2018-07-26T02:38:56.381Z,101743.92
2018-07-26T02:41:23.963Z,101741.85
2018-07-26T02:43:51.499Z,101747.02
2018-07-26T02:46:19.399Z,101747.55
2018-07-26T02:48:46.962Z,101748.89
2018-07-26T02:51:14.525Z,101752.45
2018-07-26T02:53:42.383Z,101752.97
2018-07-26T02:56:09.996Z,101748.25
2018-07-26T02:58:37.655Z,101740.98
2018-07-26T03:01:05.915Z,101745.41
2018-07-26T03:03:33.453Z,101750.70
2018-07-26T03:06:00.974Z,101756.13
2018-07-26T03:08:28.808Z,101758.21
2018-07-26T03:10:56.392Z,101752.44
2018-07-26T03:13:23.979Z,101743.30
2018-07-26T03:15:52.057Z,101740.23
2018-07-26T03:18:19.754Z,101746.50
2018-07-26T03:21:18.261Z,101748.72
2018-07-26T03:23:46.076Z,101747.63
2018-07-26T03:26:13.636Z,101743.70
2018-07-26T03:28:41.457Z,101744.18
2018-07-26T03:31:09.688Z,101756.77
2018-07-26T03:33:37.254Z,101754.19
2018-07-26T03:36:05.051Z,101759.36
2018-07-26T03:38:32.898Z,101765.05
2018-07-26T03:41:00.439Z,101762.84
2018-07-26T03:43:28.124Z,101772.20
2018-07-26T03:45:55.927Z,101784.28
2018-07-26T03:48:23.499Z,101784.02
2018-07-26T03:50:51.303Z,101791.76
2018-07-26T03:53:19.029Z,101814.03
2018-07-26T03:55:46.508Z,101820.42
2018-07-26T03:58:14.307Z,101827.81
2018-07-26T04:00:42.139Z,101833.84
2018-07-26T04:03:09.985Z,101834.06
2018-07-26T04:05:37.835Z,101839.23
2018-07-26T04:08:05.747Z,101839.84
2018-07-26T04:10:33.326Z,101843.65
2018-07-26T04:13:00.997Z,101838.09
2018-07-26T04:15:28.687Z,101823.91
2018-07-26T04:20:35.538Z,101818.22
2018-07-26T04:23:03.178Z,101806.36
2018-07-26T04:25:31.363Z,101803.52
2018-07-26T04:27:59.282Z,101806.97
2018-07-26T04:30:26.844Z,101814.72
2018-07-26T04:32:54.461Z,101815.59
2018-07-26T04:35:22.273Z,101817.82
2018-07-26T04:37:49.838Z,101812.39
2018-07-26T04:40:17.418Z,101815.71
2018-07-26T04:42:45.309Z,101823.34
2018-07-26T04:45:12.875Z,101834.05
2018-07-26T04:47:40.412Z,101838.86
2018-07-26T04:50:08.411Z,101836.50
2018-07-26T04:52:35.961Z,101852.04
2018-07-26T04:55:03.646Z,101857.82
2018-07-26T04:57:31.345Z,101867.19
2018-07-26T04:59:59.061Z,101858.08
2018-07-26T05:02:26.716Z,101860.66
2018-07-26T05:04:54.877Z,101874.94
2018-07-26T05:07:22.476Z,101873.58
2018-07-26T05:09:50.053Z,101881.45
2018-07-26T05:12:17.974Z,101886.88
2018-07-26T05:14:45.486Z,101876.41
2018-07-26T05:17:13.081Z,101878.99
2018-07-26T05:19:40.905Z,101879.34
2018-07-26T05:22:08.464Z,101881.19
2018-07-26T05:24:35.994Z,101877.63
2018-07-26T05:27:04.244Z,101875.27
2018-07-26T05:29:31.767Z,101876.98
2018-07-26T05:31:59.338Z,101862.47
2018-07-26T05:34:27.385Z,101861.47
2018-07-26T05:36:54.973Z,101859.97
2018-07-26T05:39:22.564Z,101859.36
2018-07-26T05:41:50.474Z,101865.14
2018-07-26T05:44:17.994Z,101865.39
2018-07-26T05:46:45.690Z,101868.32
2018-07-26T05:49:13.579Z,101873.48
2018-07-26T05:51:41.192Z,101870.50
2018-07-26T05:54:08.796Z,101869.50
2018-07-26T05:56:43.343Z,101875.31
2018-07-26T05:59:10.899Z,101874.80
2018-07-26T06:01:38.576Z,101866.89
2018-07-26T06:04:06.507Z,101860.81
2018-07-26T06:06:34.308Z,101866.84
2018-07-26T06:09:01.912Z,101867.44
2018-07-26T06:11:29.888Z,101864.45
2018-07-26T06:13:57.457Z,101886.27
2018-07-26T06:16:25.022Z,101883.80
2018-07-26T06:18:52.916Z,101893.04
2018-07-26T06:21:20.533Z,101904.86
2018-07-26T06:23:48.129Z,101912.60
2018-07-26T06:26:15.961Z,101904.39
2018-07-26T06:28:43.515Z,101905.69
2018-07-26T06:31:11.108Z,101908.25
2018-07-26T06:33:39.161Z,101908.19
2018-07-26T06:36:06.674Z,101911.40
2018-07-26T06:38:34.258Z,101919.49
2018-07-26T06:41:02.309Z,101928.45
2018-07-26T06:43:29.957Z,101940.14
2018-07-26T06:45:57.559Z,101940.59
2018-07-26T06:48:25.641Z,101951.93
2018-07-26T06:50:53.217Z,101954.86
2018-07-26T06:53:20.783Z,101960.69
2018-07-26T06:55:48.488Z,101960.82
2018-07-26T06:58:16.098Z,101963.02
2018-07-26T07:00:43.689Z,101954.65
2018-07-26T07:03:26.354Z,101951.26
2018-07-26T07:05:53.965Z,101957.81
2018-07-26T07:08:21.872Z,101966.98
2018-07-26T07:10:49.604Z,101976.14
2018-07-26T07:13:17.189Z,101980.98
2018-07-26T07:15:44.927Z,101985.34
2018-07-26T07:18:12.607Z,101995.75
2018-07-26T07:20:40.250Z,101994.93
2018-07-26T07:23:14.902Z,101999.25
2018-07-26T07:25:42.431Z,102003.45
2018-07-26T07:28:10.172Z,102004.69
2018-07-26T07:30:37.895Z,102004.97
2018-07-26T07:33:05.467Z,102004.45
2018-07-26T07:35:33.330Z,102006.89
2018-07-26T07:38:01.008Z,102016.14
2018-07-26T07:40:28.608Z,102017.75
2018-07-26T07:42:56.266Z,102021.69
2018-07-26T07:45:23.969Z,102026.86
2018-07-26T07:47:51.508Z,102022.64
2018-07-26T07:50:19.272Z,102022.12
2018-07-26T07:52:46.937Z,102020.90
2018-07-26T07:55:14.494Z,102025.77
2018-07-26T07:57:42.127Z,102024.16
2018-07-26T08:00:09.897Z,102033.94
2018-07-26T08:02:37.625Z,102025.44
2018-07-26T08:05:05.505Z,102023.86
2018-07-26T08:07:33.263Z,102034.34
2018-07-26T08:10:01.031Z,102030.92
2018-07-26T08:12:28.878Z,102031.02
2018-07-26T08:14:56.646Z,102018.20
2018-07-26T08:17:24.200Z,102037.59
2018-07-26T08:19:52.021Z,102036.71
2018-07-26T08:22:19.669Z,102042.37
2018-07-26T08:24:47.277Z,102044.60
2018-07-26T08:27:15.015Z,102048.67
2018-07-26T08:29:42.637Z,102050.91
2018-07-26T08:32:10.240Z,102058.19
2018-07-26T08:34:37.970Z,102065.25
2018-07-26T08:37:05.719Z,102066.84
2018-07-26T08:39:33.318Z,102068.69
2018-07-26T08:42:01.067Z,102066.50
2018-07-26T08:44:28.688Z,102068.21
2018-07-26T08:46:56.387Z,102073.77
2018-07-26T08:49:24.040Z,102076.22
2018-07-26T08:51:51.921Z,102078.78
2018-07-26T08:54:19.455Z,102080.31
2018-07-26T08:56:47.285Z,102084.59
2018-07-26T08:59:14.993Z,102082.07
2018-07-26T09:01:42.540Z,102079.75
2018-07-26T09:04:10.062Z,102089.20
2018-07-26T09:06:37.829Z,102091.97
2018-07-26T09:09:08.028Z,102091.17
2018-07-26T09:11:35.817Z,102097.34
2018-07-26T09:14:03.672Z,102095.64
2018-07-26T09:16:31.204Z,102100.56
2018-07-26T09:18:58.770Z,102097.73
2018-07-26T09:21:26.601Z,102099.97
2018-07-26T09:23:54.162Z,102109.49
2018-07-26T09:26:21.781Z,102112.56
2018-07-26T09:28:49.595Z,102118.00
2018-07-26T09:31:17.285Z,102115.28
2018-07-26T09:33:44.898Z,102123.10
2018-07-26T09:36:12.599Z,102119.50
2018-07-26T09:38:40.226Z,102120.23
2018-07-26T09:41:07.831Z,102114.31
2018-07-26T09:43:35.535Z,102111.72
2018-07-26T09:46:03.149Z,102120.73
2018-07-26T09:48:30.671Z,102122.09
2018-07-26T09:50:58.501Z,102127.92
2018-07-26T09:53:26.105Z,102126.17
2018-07-26T09:55:53.729Z,102116.51
2018-07-26T09:58:21.368Z,102121.67
2018-07-26T10:00:54.585Z,102121.78
2018-07-26T10:03:22.114Z,102126.05
2018-07-26T10:05:49.762Z,102120.89
2018-07-26T10:08:17.314Z,102119.92
2018-07-26T10:10:44.860Z,102120.09
2018-07-26T10:13:12.779Z,102122.98
2018-07-26T10:15:40.323Z,102131.96
2018-07-26T10:18:07.950Z,102131.54
2018-07-26T10:20:35.685Z,102135.20
2018-07-26T10:23:03.226Z,102135.27
2018-07-26T10:25:30.744Z,102140.99
2018-07-26T10:27:58.484Z,102140.05
2018-07-26T10:30:26.082Z,102142.88
2018-07-26T10:32:53.656Z,102141.72
2018-07-26T10:35:21.357Z,102127.80
2018-07-26T10:37:48.963Z,102132.98
2018-07-26T10:40:16.465Z,102141.66
2018-07-26T10:42:44.251Z,102150.20
2018-07-26T10:45:11.807Z,102150.55
2018-07-26T10:47:39.397Z,102146.92
2018-07-26T10:50:08.286Z,102144.67
2018-07-26T10:52:35.824Z,102139.61
2018-07-26T10:55:03.475Z,102138.97
2018-07-26T10:57:31.354Z,102135.52
2018-07-26T10:59:58.870Z,102138.39
2018-07-26T11:02:26.493Z,102148.81
2018-07-26T11:04:54.209Z,102139.17
2018-07-26T11:07:21.775Z,102146.91
2018-07-26T11:09:49.412Z,102130.30
2018-07-26T11:12:17.125Z,102141.53
2018-07-26T11:14:44.765Z,102148.70
2018-07-26T11:17:12.303Z,102152.80
2018-07-26T11:19:40.039Z,102155.03
2018-07-26T11:22:07.679Z,102145.28
2018-07-26T11:24:35.308Z,102150.00
2018-07-26T11:27:02.960Z,102140.96
2018-07-26T11:29:37.164Z,102149.17
2018-07-26T11:32:04.880Z,102154.59
2018-07-26T11:34:32.480Z,102150.67
2018-07-26T11:37:00.057Z,102152.30
2018-07-26T11:39:27.758Z,102155.81
2018-07-26T11:41:55.400Z,102143.63
2018-07-26T11:44:22.934Z,102142.77
2018-07-26T11:46:50.811Z,102148.16
2018-07-26T11:49:18.481Z,102141.77
2018-07-26T11:51:46.054Z,102148.50
2018-07-26T11:54:13.887Z,102153.57
2018-07-26T11:56:41.554Z,102158.42
2018-07-26T11:59:09.196Z,102162.02
2018-07-26T12:01:37.065Z,102160.64
2018-07-26T12:04:04.698Z,102162.28
2018-07-26T12:06:32.406Z,102168.36
2018-07-26T12:09:00.090Z,102172.35
2018-07-26T12:11:27.714Z,102171.94
2018-07-26T12:13:55.308Z,102175.47
2018-07-26T12:16:23.152Z,102177.14
2018-07-26T12:18:50.691Z,102179.37
2018-07-26T12:21:18.274Z,102177.14
2018-07-26T12:23:45.999Z,102188.06
2018-07-26T12:26:13.625Z,102179.37
2018-07-26T12:28:41.265Z,102185.70
2018-07-26T12:31:09.200Z,102179.72
2018-07-26T12:33:36.772Z,102186.39
2018-07-26T12:36:04.408Z,102181.30
2018-07-26T12:38:32.210Z,102184.04
2018-07-26T12:40:59.793Z,102189.28
2018-07-26T12:43:27.455Z,102184.19
2018-07-26T12:45:55.458Z,102180.78
2018-07-26T12:48:23.041Z,102181.00
2018-07-26T12:50:50.633Z,102180.05
2018-07-26T12:53:18.539Z,102189.16
2018-07-26T12:55:46.220Z,102186.28
2018-07-26T12:58:13.816Z,102187.98
2018-07-26T13:00:41.658Z,102191.78
2018-07-26T13:03:09.237Z,102187.38
2018-07-26T13:05:37.101Z,102186.20
2018-07-26T13:08:05.075Z,102189.31
2018-07-26T13:10:32.696Z,102186.58
2018-07-26T13:13:00.351Z,102180.95
2018-07-26T13:15:28.200Z,102181.64
2018-07-26T13:17:55.915Z,102187.17
2018-07-26T13:20:23.531Z,102186.26
2018-07-26T13:22:51.355Z,102189.73
2018-07-26T13:25:18.955Z,102189.47
2018-07-26T13:27:46.557Z,102185.20
2018-07-26T13:30:14.326Z,102189.34
2018-07-26T13:32:41.901Z,102185.23
2018-07-26T13:35:09.492Z,102183.22
2018-07-26T13:37:37.364Z,102185.48
2018-07-26T13:40:05.028Z,102185.52
2018-07-26T13:42:32.701Z,102190.03
2018-07-26T13:45:00.442Z,102184.62
2018-07-26T13:47:28.092Z,102188.78
2018-07-26T13:49:55.711Z,102183.55
2018-07-26T13:52:23.528Z,102189.60
2018-07-26T13:54:51.196Z,102188.82
2018-07-26T13:57:18.940Z,102183.69
2018-07-26T13:59:46.684Z,102183.34
2018-07-26T14:02:14.299Z,102183.69
2018-07-26T14:04:41.991Z,102191.08
2018-07-26T14:07:09.790Z,102191.11
2018-07-26T14:09:37.443Z,102188.27
2018-07-26T14:12:05.055Z,102195.29
2018-07-26T14:14:32.847Z,102193.27
2018-07-26T14:17:00.532Z,102194.47
2018-07-26T14:19:28.203Z,102201.16
2018-07-26T14:21:55.889Z,102196.52
2018-07-26T14:24:24.564Z,102196.52
2018-07-26T14:26:52.995Z,102198.77
2018-07-26T14:29:20.802Z,102192.78
2018-07-26T14:31:48.446Z,102196.02
2018-07-26T14:34:16.050Z,102198.77
2018-07-26T14:36:44.286Z,102199.63
2018-07-26T14:39:12.227Z,102204.39
2018-07-26T14:41:40.192Z,102209.00
2018-07-26T14:44:08.284Z,102210.69
2018-07-26T14:46:36.186Z,102210.34
2018-07-26T14:49:03.973Z,102211.88
2018-07-26T14:51:31.775Z,102213.37
2018-07-26T14:53:59.355Z,102215.06
2018-07-26T14:56:28.140Z,102214.19
2018-07-26T14:58:55.885Z,102216.77
2018-07-26T15:01:23.503Z,102216.77
2018-07-26T15:03:51.173Z,102211.30
2018-07-26T15:06:19.286Z,102216.77
2018-07-26T15:08:46.870Z,102213.69
2018-07-26T15:11:14.469Z,102228.03
2018-07-26T15:13:42.194Z,102235.68
2018-07-26T15:16:09.825Z,102239.88
2018-07-26T15:18:37.431Z,102233.14
2018-07-26T15:21:05.539Z,102238.73
2018-07-26T15:23:33.172Z,102235.10
2018-07-26T15:26:00.762Z,102233.70
2018-07-26T15:28:28.467Z,102234.85
2018-07-26T15:30:56.133Z,102240.70
2018-07-26T15:33:23.732Z,102242.41
2018-07-26T15:35:51.534Z,102237.65
2018-07-26T15:38:19.175Z,102237.34
2018-07-26T15:40:46.851Z,102245.39
2018-07-26T15:43:14.646Z,102249.19
2018-07-26T15:45:42.209Z,102244.77
2018-07-26T15:48:09.838Z,102251.64
2018-07-26T15:50:37.768Z,102252.04
2018-07-26T15:53:05.432Z,102248.56
2018-07-26T15:55:33.068Z,102251.88
2018-07-26T15:58:00.718Z,102246.98
2018-07-26T16:00:28.342Z,102250.43
2018-07-26T16:02:56.047Z,102250.45
2018-07-26T16:05:23.821Z,102257.70
2018-07-26T16:07:51.505Z,102259.78
2018-07-26T16:10:19.116Z,102259.63
2018-07-26T16:12:46.870Z,102265.25
2018-07-26T16:15:14.516Z,102267.78
2018-07-26T16:17:42.147Z,102271.86
2018-07-26T16:20:10.681Z,102274.70
2018-07-26T16:22:38.442Z,102280.12
2018-07-26T16:25:07.544Z,102280.69
2018-07-26T16:27:35.345Z,102279.16
2018-07-26T16:30:03.609Z,102283.69
2018-07-26T16:32:31.260Z,102285.45
2018-07-26T16:34:59.036Z,102293.55
2018-07-26T16:37:26.636Z,102302.03
2018-07-26T16:39:54.222Z,102304.31
2018-07-26T16:42:22.125Z,102305.22
2018-07-26T16:44:49.700Z,102310.88
2018-07-26T16:47:17.296Z,102314.52
2018-07-26T16:49:45.088Z,102315.64
2018-07-26T16:52:12.693Z,102320.48
2018-07-26T16:54:40.262Z,102325.81
2018-07-26T16:57:08.412Z,102331.79
2018-07-26T16:59:36.006Z,102325.69
2018-07-26T17:02:03.735Z,102326.13
2018-07-26T17:04:31.595Z,102336.52
2018-07-26T17:06:59.374Z,102336.28
2018-07-26T17:09:27.301Z,102339.83
2018-07-26T17:11:55.057Z,102339.21
2018-07-26T17:14:22.604Z,102344.23
2018-07-26T17:16:50.285Z,102334.63
2018-07-26T17:19:18.044Z,102345.45
2018-07-26T17:21:46.421Z,102335.48
2018-07-26T17:24:14.017Z,102334.56
2018-07-26T17:26:41.812Z,102333.97
2018-07-26T17:29:10.210Z,102339.72
2018-07-26T17:31:37.952Z,102341.38
2018-07-26T17:34:05.717Z,102340.05
2018-07-26T17:36:33.321Z,102344.58
2018-07-26T17:39:01.001Z,102344.02
2018-07-26T17:41:28.754Z,102351.47
2018-07-26T17:43:56.370Z,102353.27
2018-07-26T17:46:23.997Z,102360.66
2018-07-26T17:48:52.019Z,102357.33
2018-07-26T17:51:19.773Z,102361.70
2018-07-26T17:53:47.413Z,102361.47
2018-07-26T17:56:15.043Z,102362.09
2018-07-26T17:58:42.653Z,102366.67
2018-07-26T18:01:10.380Z,102368.04
2018-07-26T18:03:38.159Z,102374.16
2018-07-26T18:06:05.843Z,102373.08
2018-07-26T18:08:33.458Z,102378.14
2018-07-26T18:11:01.229Z,102379.65
2018-07-26T18:13:28.842Z,102380.45
2018-07-26T18:15:56.532Z,102376.45
2018-07-26T18:18:24.221Z,102389.33
2018-07-26T18:20:51.824Z,102393.69
2018-07-26T18:23:19.497Z,102395.68
2018-07-26T18:25:47.241Z,102399.17
2018-07-26T18:28:14.881Z,102395.50
2018-07-26T18:30:42.453Z,102402.09
2018-07-26T18:33:10.211Z,102403.73
2018-07-26T18:35:37.919Z,102408.94
2018-07-26T18:38:05.731Z,102414.80
2018-07-26T18:40:33.577Z,102413.71
2018-07-26T18:43:01.144Z,102421.31
2018-07-26T18:45:28.753Z,102426.52
2018-07-26T18:47:56.699Z,102416.37
2018-07-26T18:50:24.287Z,102419.63
2018-07-26T18:52:51.959Z,102425.83
2018-07-26T18:55:19.940Z,102432.78
2018-07-26T18:57:47.609Z,102431.69
2018-07-26T19:00:46.124Z,102433.17
2018-07-26T19:03:13.748Z,102431.04
2018-07-26T19:05:41.389Z,102433.33
2018-07-26T19:08:09.156Z,102448.19
2018-07-26T19:10:36.820Z,102446.13
2018-07-26T19:13:04.558Z,102450.22
2018-07-26T19:15:32.420Z,102454.08
2018-07-26T19:18:00.127Z,102454.97
2018-07-26T19:20:27.873Z,102458.44
2018-07-26T19:22:55.652Z,102456.50
2018-07-26T19:25:23.649Z,102471.09
2018-07-26T19:27:51.373Z,102464.41
2018-07-26T19:30:19.248Z,102462.95
2018-07-26T19:32:46.956Z,102470.16
2018-07-26T19:35:14.590Z,102472.78
2018-07-26T19:37:42.262Z,102466.98
2018-07-26T19:40:11.235Z,102485.52
2018-07-26T19:42:39.310Z,102487.79
2018-07-26T19:45:07.723Z,102486.81
2018-07-26T19:47:35.511Z,102488.56
2018-07-26T19:50:03.255Z,102489.88
2018-07-26T19:52:30.969Z,102498.95
2018-07-26T19:54:58.574Z,102503.41
2018-07-26T19:57:26.180Z,102509.72
2018-07-26T19:59:54.008Z,102489.34
2018-07-26T20:02:21.676Z,102510.08
2018-07-26T20:04:49.259Z,102513.58
2018-07-26T20:07:17.092Z,102509.48
2018-07-26T20:09:44.697Z,102509.38
2018-07-26T20:14:41.315Z,102510.95
2018-07-26T20:17:09.003Z,102510.61
2018-07-26T20:19:36.636Z,102518.27
2018-07-26T20:22:04.441Z,102523.95
2018-07-26T20:24:32.132Z,102521.60
2018-07-26T20:26:59.871Z,102525.05
2018-07-26T20:29:27.650Z,102523.54
2018-07-26T20:31:55.258Z,102526.11
2018-07-26T20:34:22.881Z,102528.70
2018-07-26T20:36:50.675Z,102524.87
2018-07-26T20:39:18.701Z,102526.95
2018-07-26T20:41:46.314Z,102534.12
2018-07-26T20:44:14.107Z,102536.11
2018-07-26T20:46:41.921Z,102541.39
2018-07-26T20:49:09.584Z,102543.11
2018-07-26T20:51:37.369Z,102542.52
2018-07-26T20:54:05.085Z,102544.19
2018-07-26T20:56:32.768Z,102538.75
2018-07-26T20:59:00.554Z,102544.19
2018-07-26T21:01:28.255Z,102549.85
2018-07-26T21:03:55.953Z,102550.57
2018-07-26T21:06:23.669Z,102553.52
2018-07-26T21:08:51.314Z,102562.90
2018-07-26T21:11:18.933Z,102564.09
2018-07-26T21:13:46.801Z,102553.95
2018-07-26T21:16:14.470Z,102560.48
2018-07-26T21:18:42.058Z,102558.45
2018-07-26T21:21:09.879Z,102560.55
2018-07-26T21:23:37.444Z,102567.18
2018-07-26T21:26:05.064Z,102569.28
2018-07-26T21:28:33.012Z,102564.45
2018-07-26T21:31:00.584Z,102571.83
2018-07-26T21:33:28.169Z,102573.94
2018-07-26T21:35:56.081Z,102577.84
2018-07-26T21:38:23.632Z,102576.34
2018-07-26T21:40:51.245Z,102576.17
2018-07-26T21:43:19.007Z,102581.83
2018-07-26T21:45:46.904Z,102585.64
2018-07-26T21:48:14.537Z,102585.51
2018-07-26T21:50:42.357Z,102593.76
2018-07-26T21:53:10.029Z,102594.35
2018-07-26T21:55:37.622Z,102598.65
2018-07-26T21:58:05.349Z,102598.51
2018-07-26T22:00:42.059Z,102598.62
2018-07-26T22:03:09.851Z,102605.22
2018-07-26T22:05:37.708Z,102610.11
2018-07-26T22:08:05.375Z,102607.36
2018-07-26T22:10:33.096Z,102617.08
2018-07-26T22:13:00.903Z,102622.72
2018-07-26T22:15:28.550Z,102626.02
2018-07-26T22:17:56.228Z,102627.12
2018-07-26T22:20:23.909Z,102628.19
2018-07-26T22:22:51.589Z,102641.34
2018-07-26T22:25:19.320Z,102639.25
2018-07-26T22:27:47.053Z,102646.98
2018-07-26T22:30:14.883Z,102653.98
2018-07-26T22:32:42.722Z,102646.94
2018-07-26T22:35:10.427Z,102643.56
2018-07-26T22:37:38.197Z,102650.19
2018-07-26T22:40:06.123Z,102651.36
2018-07-26T22:54:31.603Z,102658.47
2018-07-26T22:56:59.205Z,102655.09
2018-07-26T22:59:26.844Z,102657.03
2018-07-26T23:01:54.728Z,102660.32
2018-07-26T23:04:22.327Z,102662.30
2018-07-26T23:06:49.887Z,102665.95
2018-07-26T23:09:17.610Z,102665.69
2018-07-26T23:11:45.217Z,102667.63
2018-07-26T23:14:12.836Z,102662.82
2018-07-26T23:16:40.660Z,102666.59
2018-07-26T23:19:08.291Z,102674.92
2018-07-26T23:21:35.959Z,102672.42
2018-07-26T23:24:04.049Z,102672.16
2018-07-26T23:26:31.731Z,102665.96
2018-07-26T23:28:59.346Z,102665.48
2018-07-26T23:31:27.284Z,102671.38
2018-07-26T23:33:55.103Z,102672.84
2018-07-26T23:36:22.722Z,102673.52
2018-07-26T23:38:50.498Z,102684.46
2018-07-26T23:41:18.227Z,102682.26
2018-07-26T23:43:45.775Z,102676.95
2018-07-26T23:46:13.570Z,102672.48
2018-07-26T23:48:41.219Z,102675.29
2018-07-26T23:51:08.810Z,102685.75
2018-07-26T23:53:36.654Z,102677.63
2018-07-26T23:56:04.290Z,102683.11
2018-07-26T23:58:31.884Z,102687.75
